sensor_id;sensor_type;location;lat;lon;timestamp;temperature;humidity
47921;DHT22;33686;48.770;9.186;2022-07-21T04:16:09;20.50;99.90
47921;DHT22;33686;48.770;9.186;2022-07-21T04:18:34;20.60;99.90
47921;DHT22;33686;48.770;9.186;2022-07-21T04:21:00;20.70;99.90
47921;DHT22;33686;48.770;9.186;2022-07-21T04:23:26;20.70;99.90
47921;DHT22;33686;48.770;9.186;2022-07-21T04:25:51;20.50;99.90
47921;DHT22;33686;48.770;9.186;2022-07-21T04:28:17;20.50;99.90
47921;DHT22;33686;48.770;9.186;2022-07-21T04:30:42;20.50;99.90
47921;DHT22;33686;48.770;9.186;2022-07-21T04:33:07;20.50;99.90
47921;DHT22;33686;48.770;9.186;2022-07-21T04:35:33;20.50;99.90
47921;DHT22;33686;48.770;9.186;2022-07-21T04:37:59;20.40;99.90
47921;DHT22;33686;48.770;9.186;2022-07-21T04:40:24;20.10;99.90
47921;DHT22;33686;48.770;9.186;2022-07-21T04:42:50;20.10;99.90
47921;DHT22;33686;48.770;9.186;2022-07-21T04:45:16;20.00;99.90
47921;DHT22;33686;48.770;9.186;2022-07-21T04:47:48;20.00;99.90
47921;DHT22;33686;48.770;9.186;2022-07-21T04:50:15;20.30;99.90
47921;DHT22;33686;48.770;9.186;2022-07-21T04:52:41;20.40;99.90
47921;DHT22;33686;48.770;9.186;2022-07-21T04:55:06;20.40;99.90
47921;DHT22;33686;48.770;9.186;2022-07-21T04:57:35;20.40;99.90
47921;DHT22;33686;48.770;9.186;2022-07-21T05:00:01;20.10;99.90
47921;DHT22;33686;48.770;9.186;2022-07-21T05:02:29;20.30;99.90
47921;DHT22;33686;48.770;9.186;2022-07-21T05:04:55;20.80;99.90
47921;DHT22;33686;48.770;9.186;2022-07-21T05:07:20;21.50;99.90
47921;DHT22;33686;48.770;9.186;2022-07-21T05:09:46;22.20;99.90
47921;DHT22;33686;48.770;9.186;2022-07-21T05:12:11;21.80;99.90
47921;DHT22;33686;48.770;9.186;2022-07-21T05:14:37;21.60;99.90
47921;DHT22;33686;48.770;9.186;2022-07-21T05:17:02;21.60;99.90
47921;DHT22;33686;48.770;9.186;2022-07-21T05:19:28;21.90;99.90
47921;DHT22;33686;48.770;9.186;2022-07-21T05:21:53;22.70;99.90
47921;DHT22;33686;48.770;9.186;2022-07-21T05:24:19;23.30;99.90
47921;DHT22;33686;48.770;9.186;2022-07-21T05:26:44;23.80;99.90
47921;DHT22;33686;48.770;9.186;2022-07-21T05:29:10;24.60;99.90
47921;DHT22;33686;48.770;9.186;2022-07-21T05:31:35;25.20;99.90
47921;DHT22;33686;48.770;9.186;2022-07-21T05:34:01;25.80;99.90
47921;DHT22;33686;48.770;9.186;2022-07-21T05:36:26;26.00;99.90
47921;DHT22;33686;48.770;9.186;2022-07-21T05:38:52;26.50;99.90
47921;DHT22;33686;48.770;9.186;2022-07-21T05:41:17;26.50;99.90
47921;DHT22;33686;48.770;9.186;2022-07-21T05:43:43;26.30;99.90
47921;DHT22;33686;48.770;9.186;2022-07-21T05:46:08;26.00;99.90
47921;DHT22;33686;48.770;9.186;2022-07-21T05:48:34;26.30;99.90
47921;DHT22;33686;48.770;9.186;2022-07-21T05:50:59;25.50;99.90
47921;DHT22;33686;48.770;9.186;2022-07-21T05:53:25;25.60;99.90
47921;DHT22;33686;48.770;9.186;2022-07-21T05:55:50;25.60;99.90
47921;DHT22;33686;48.770;9.186;2022-07-21T05:58:17;25.50;99.90
47921;DHT22;33686;48.770;9.186;2022-07-21T06:00:44;25.90;99.90
47921;DHT22;33686;48.770;9.186;2022-07-21T06:03:29;26.40;99.90
47921;DHT22;33686;48.770;9.186;2022-07-21T06:05:55;25.70;99.90
47921;DHT22;33686;48.770;9.186;2022-07-21T06:08:21;26.00;99.90
47921;DHT22;33686;48.770;9.186;2022-07-21T06:10:46;26.20;99.90
47921;DHT22;33686;48.770;9.186;2022-07-21T06:13:12;27.30;99.90
47921;DHT22;33686;48.770;9.186;2022-07-21T06:15:37;27.70;99.90
47921;DHT22;33686;48.770;9.186;2022-07-21T06:18:03;27.70;99.90
47921;DHT22;33686;48.770;9.186;2022-07-21T06:20:28;28.30;99.90
47921;DHT22;33686;48.770;9.186;2022-07-21T06:22:54;28.30;99.90
47921;DHT22;33686;48.770;9.186;2022-07-21T06:25:19;27.70;99.90
47921;DHT22;33686;48.770;9.186;2022-07-21T06:27:46;27.80;99.90
47921;DHT22;33686;48.770;9.186;2022-07-21T06:30:11;28.00;99.90
47921;DHT22;33686;48.770;9.186;2022-07-21T06:32:37;28.10;99.90
47921;DHT22;33686;48.770;9.186;2022-07-21T06:35:02;28.60;99.90
47921;DHT22;33686;48.770;9.186;2022-07-21T06:37:28;28.60;99.90
47921;DHT22;33686;48.770;9.186;2022-07-21T06:39:54;27.80;99.90
47921;DHT22;33686;48.770;9.186;2022-07-21T06:42:19;26.80;99.90
47921;DHT22;33686;48.770;9.186;2022-07-21T06:44:45;26.20;99.90
47921;DHT22;33686;48.770;9.186;2022-07-21T06:47:10;26.40;99.90
47921;DHT22;33686;48.770;9.186;2022-07-21T06:49:36;25.50;99.90
47921;DHT22;33686;48.770;9.186;2022-07-21T06:52:01;25.40;99.90
47921;DHT22;33686;48.770;9.186;2022-07-21T06:54:27;26.70;99.90
47921;DHT22;33686;48.770;9.186;2022-07-21T06:56:52;26.60;99.90
47921;DHT22;33686;48.770;9.186;2022-07-21T06:59:18;27.00;99.90
47921;DHT22;33686;48.770;9.186;2022-07-21T07:01:43;27.80;99.90
47921;DHT22;33686;48.770;9.186;2022-07-21T07:04:09;28.70;99.90
47921;DHT22;33686;48.770;9.186;2022-07-21T07:06:34;28.30;99.90
47921;DHT22;33686;48.770;9.186;2022-07-21T07:09:00;28.10;99.90
47921;DHT22;33686;48.770;9.186;2022-07-21T07:11:26;28.70;99.90
47921;DHT22;33686;48.770;9.186;2022-07-21T07:13:51;29.40;98.90
47921;DHT22;33686;48.770;9.186;2022-07-21T07:16:17;29.70;98.70
47921;DHT22;33686;48.770;9.186;2022-07-21T07:18:42;30.30;98.20
47921;DHT22;33686;48.770;9.186;2022-07-21T07:21:08;31.20;97.10
47921;DHT22;33686;48.770;9.186;2022-07-21T07:23:33;30.90;96.60
47921;DHT22;33686;48.770;9.186;2022-07-21T07:25:59;29.70;97.40
47921;DHT22;33686;48.770;9.186;2022-07-21T07:28:24;29.40;98.50
47921;DHT22;33686;48.770;9.186;2022-07-21T07:30:50;30.10;97.80
47921;DHT22;33686;48.770;9.186;2022-07-21T07:33:16;29.90;97.50
47921;DHT22;33686;48.770;9.186;2022-07-21T07:35:42;29.60;97.60
47921;DHT22;33686;48.770;9.186;2022-07-21T07:38:12;29.90;97.60
47921;DHT22;33686;48.770;9.186;2022-07-21T07:40:37;30.40;96.60
47921;DHT22;33686;48.770;9.186;2022-07-21T07:43:03;30.00;97.10
47921;DHT22;33686;48.770;9.186;2022-07-21T07:45:28;30.50;97.10
47921;DHT22;33686;48.770;9.186;2022-07-21T07:47:54;29.70;97.10
47921;DHT22;33686;48.770;9.186;2022-07-21T07:50:19;29.80;97.00
47921;DHT22;33686;48.770;9.186;2022-07-21T07:52:45;31.00;95.60
47921;DHT22;33686;48.770;9.186;2022-07-21T07:55:11;30.80;96.30
47921;DHT22;33686;48.770;9.186;2022-07-21T07:57:38;31.50;95.00
47921;DHT22;33686;48.770;9.186;2022-07-21T08:00:05;31.60;94.40
47921;DHT22;33686;48.770;9.186;2022-07-21T08:02:37;32.20;94.20
47921;DHT22;33686;48.770;9.186;2022-07-21T08:05:03;32.60;92.90
47921;DHT22;33686;48.770;9.186;2022-07-21T08:07:29;33.10;92.50
47921;DHT22;33686;48.770;9.186;2022-07-21T08:09:54;33.00;92.20
47921;DHT22;33686;48.770;9.186;2022-07-21T08:12:20;32.70;92.00
47921;DHT22;33686;48.770;9.186;2022-07-21T08:14:45;32.80;92.00
47921;DHT22;33686;48.770;9.186;2022-07-21T08:17:11;33.20;91.40
47921;DHT22;33686;48.770;9.186;2022-07-21T08:19:36;32.60;92.10
47921;DHT22;33686;48.770;9.186;2022-07-21T08:22:02;32.00;92.20
47921;DHT22;33686;48.770;9.186;2022-07-21T08:24:28;30.70;93.60
47921;DHT22;33686;48.770;9.186;2022-07-21T08:26:53;29.80;93.30
47921;DHT22;33686;48.770;9.186;2022-07-21T08:29:19;28.80;95.10
47921;DHT22;33686;48.770;9.186;2022-07-21T08:31:45;28.40;95.10
47921;DHT22;33686;48.770;9.186;2022-07-21T08:34:10;28.60;95.90
47921;DHT22;33686;48.770;9.186;2022-07-21T08:36:36;29.50;95.30
47921;DHT22;33686;48.770;9.186;2022-07-21T08:39:02;30.00;94.20
47921;DHT22;33686;48.770;9.186;2022-07-21T08:41:27;31.40;93.10
47921;DHT22;33686;48.770;9.186;2022-07-21T08:43:53;31.60;92.90
47921;DHT22;33686;48.770;9.186;2022-07-21T08:46:21;31.70;91.90
47921;DHT22;33686;48.770;9.186;2022-07-21T08:48:48;31.00;92.30
47921;DHT22;33686;48.770;9.186;2022-07-21T08:51:14;30.50;92.50
47921;DHT22;33686;48.770;9.186;2022-07-21T08:53:44;29.40;93.00
47921;DHT22;33686;48.770;9.186;2022-07-21T08:56:10;28.40;94.40
47921;DHT22;33686;48.770;9.186;2022-07-21T08:58:36;27.70;95.60
47921;DHT22;33686;48.770;9.186;2022-07-21T09:01:02;28.70;95.30
47921;DHT22;33686;48.770;9.186;2022-07-21T09:03:28;30.10;93.70
47921;DHT22;33686;48.770;9.186;2022-07-21T09:06:05;30.70;93.50
47921;DHT22;33686;48.770;9.186;2022-07-21T09:08:39;31.50;92.20
47921;DHT22;33686;48.770;9.186;2022-07-21T09:13:33;33.00;90.50
47921;DHT22;33686;48.770;9.186;2022-07-21T09:15:59;32.90;90.00
47921;DHT22;33686;48.770;9.186;2022-07-21T09:18:24;33.10;89.00
47921;DHT22;33686;48.770;9.186;2022-07-21T09:20:51;32.60;88.40
47921;DHT22;33686;48.770;9.186;2022-07-21T09:23:19;32.00;88.80
47921;DHT22;33686;48.770;9.186;2022-07-21T09:25:45;30.90;90.60
47921;DHT22;33686;48.770;9.186;2022-07-21T09:28:18;31.60;90.20
47921;DHT22;33686;48.770;9.186;2022-07-21T09:30:48;32.10;90.40
47921;DHT22;33686;48.770;9.186;2022-07-21T09:33:20;32.60;88.10
47921;DHT22;33686;48.770;9.186;2022-07-21T09:35:53;32.60;87.70
47921;DHT22;33686;48.770;9.186;2022-07-21T09:38:19;32.90;88.00
47921;DHT22;33686;48.770;9.186;2022-07-21T09:40:48;32.00;88.40
47921;DHT22;33686;48.770;9.186;2022-07-21T09:43:33;32.60;87.20
47921;DHT22;33686;48.770;9.186;2022-07-21T09:45:59;31.70;89.60
47921;DHT22;33686;48.770;9.186;2022-07-21T09:48:35;32.30;87.50
47921;DHT22;33686;48.770;9.186;2022-07-21T09:53:49;32.60;87.20
47921;DHT22;33686;48.770;9.186;2022-07-21T09:56:18;32.30;87.10
47921;DHT22;33686;48.770;9.186;2022-07-21T09:58:48;32.40;87.70
47921;DHT22;33686;48.770;9.186;2022-07-21T10:01:14;31.70;87.70
47921;DHT22;33686;48.770;9.186;2022-07-21T10:03:40;32.20;87.50
47921;DHT22;33686;48.770;9.186;2022-07-21T10:06:05;32.80;85.10
47921;DHT22;33686;48.770;9.186;2022-07-21T10:08:32;32.30;86.20
47921;DHT22;33686;48.770;9.186;2022-07-21T10:10:58;31.60;86.50
47921;DHT22;33686;48.770;9.186;2022-07-21T10:13:24;32.20;86.30
47921;DHT22;33686;48.770;9.186;2022-07-21T10:15:50;32.30;85.60
47921;DHT22;33686;48.770;9.186;2022-07-21T10:18:15;32.10;85.70
47921;DHT22;33686;48.770;9.186;2022-07-21T10:20:43;31.70;85.10
47921;DHT22;33686;48.770;9.186;2022-07-21T10:23:18;31.40;85.90
47921;DHT22;33686;48.770;9.186;2022-07-21T10:25:47;31.50;85.50
47921;DHT22;33686;48.770;9.186;2022-07-21T10:28:14;31.10;86.20
47921;DHT22;33686;48.770;9.186;2022-07-21T10:30:44;30.60;85.60
47921;DHT22;33686;48.770;9.186;2022-07-21T10:33:10;30.20;86.70
47921;DHT22;33686;48.770;9.186;2022-07-21T10:35:57;28.80;88.30
47921;DHT22;33686;48.770;9.186;2022-07-21T10:38:31;29.30;88.20
47921;DHT22;33686;48.770;9.186;2022-07-21T10:40:58;28.40;89.10
47921;DHT22;33686;48.770;9.186;2022-07-21T10:45:49;28.10;90.00
47921;DHT22;33686;48.770;9.186;2022-07-21T10:50:59;28.60;89.70
47921;DHT22;33686;48.770;9.186;2022-07-21T10:53:25;28.50;89.70
47921;DHT22;33686;48.770;9.186;2022-07-21T10:55:51;28.60;88.40
47921;DHT22;33686;48.770;9.186;2022-07-21T10:58:24;28.70;88.20
47921;DHT22;33686;48.770;9.186;2022-07-21T11:00:51;28.40;88.30
47921;DHT22;33686;48.770;9.186;2022-07-21T11:03:21;28.10;89.60
47921;DHT22;33686;48.770;9.186;2022-07-21T11:08:36;28.50;89.60
47921;DHT22;33686;48.770;9.186;2022-07-21T11:16:48;27.80;88.50
47921;DHT22;33686;48.770;9.186;2022-07-21T11:21:54;28.20;88.80
47921;DHT22;33686;48.770;9.186;2022-07-21T11:24:20;28.60;89.50
47921;DHT22;33686;48.770;9.186;2022-07-21T11:26:53;28.40;88.70
47921;DHT22;33686;48.770;9.186;2022-07-21T11:29:18;28.30;88.40
47921;DHT22;33686;48.770;9.186;2022-07-21T11:31:44;28.80;87.90
47921;DHT22;33686;48.770;9.186;2022-07-21T11:34:10;28.90;87.80
47921;DHT22;33686;48.770;9.186;2022-07-21T11:36:36;28.70;87.20
47921;DHT22;33686;48.770;9.186;2022-07-21T11:41:27;28.40;89.30
47921;DHT22;33686;48.770;9.186;2022-07-21T11:43:53;27.90;90.00
47921;DHT22;33686;48.770;9.186;2022-07-21T11:46:18;27.60;90.30
47921;DHT22;33686;48.770;9.186;2022-07-21T11:48:44;27.60;90.50
47921;DHT22;33686;48.770;9.186;2022-07-21T11:51:09;27.70;90.10
47921;DHT22;33686;48.770;9.186;2022-07-21T11:53:35;27.40;90.40
47921;DHT22;33686;48.770;9.186;2022-07-21T11:56:00;27.60;90.10
47921;DHT22;33686;48.770;9.186;2022-07-21T11:58:26;27.60;90.10
47921;DHT22;33686;48.770;9.186;2022-07-21T12:01:07;27.20;90.40
47921;DHT22;33686;48.770;9.186;2022-07-21T12:03:33;27.20;90.70
47921;DHT22;33686;48.770;9.186;2022-07-21T12:05:59;27.30;91.00
47921;DHT22;33686;48.770;9.186;2022-07-21T12:08:25;27.40;91.20
47921;DHT22;33686;48.770;9.186;2022-07-21T12:10:51;27.60;90.90
47921;DHT22;33686;48.770;9.186;2022-07-21T12:13:16;27.50;90.90
47921;DHT22;33686;48.770;9.186;2022-07-21T12:15:42;27.70;90.40
47921;DHT22;33686;48.770;9.186;2022-07-21T12:18:18;27.90;90.20
47921;DHT22;33686;48.770;9.186;2022-07-21T12:20:43;28.40;89.60
47921;DHT22;33686;48.770;9.186;2022-07-21T12:25:44;28.70;88.60
47921;DHT22;33686;48.770;9.186;2022-07-21T12:28:09;28.50;88.10
47921;DHT22;33686;48.770;9.186;2022-07-21T12:30:36;28.00;88.40
47921;DHT22;33686;48.770;9.186;2022-07-21T12:35:27;27.80;90.00
47921;DHT22;33686;48.770;9.186;2022-07-21T12:40:19;27.50;90.60
47921;DHT22;33686;48.770;9.186;2022-07-21T12:42:46;27.60;90.20
47921;DHT22;33686;48.770;9.186;2022-07-21T12:45:12;27.80;90.10
47921;DHT22;33686;48.770;9.186;2022-07-21T12:47:38;27.70;90.30
47921;DHT22;33686;48.770;9.186;2022-07-21T12:50:05;27.80;90.20
47921;DHT22;33686;48.770;9.186;2022-07-21T12:52:31;27.60;90.10
47921;DHT22;33686;48.770;9.186;2022-07-21T12:54:57;27.80;90.40
47921;DHT22;33686;48.770;9.186;2022-07-21T12:57:25;28.00;90.50
47921;DHT22;33686;48.770;9.186;2022-07-21T12:59:50;27.90;91.30
47921;DHT22;33686;48.770;9.186;2022-07-21T13:02:16;28.20;91.40
47921;DHT22;33686;48.770;9.186;2022-07-21T13:04:41;27.70;91.60
47921;DHT22;33686;48.770;9.186;2022-07-21T13:07:07;28.00;91.60
47921;DHT22;33686;48.770;9.186;2022-07-21T13:12:07;28.30;91.10
47921;DHT22;33686;48.770;9.186;2022-07-21T13:14:33;28.40;90.80
47921;DHT22;33686;48.770;9.186;2022-07-21T13:16:58;28.30;90.30
47921;DHT22;33686;48.770;9.186;2022-07-21T13:19:24;28.20;90.60
47921;DHT22;33686;48.770;9.186;2022-07-21T13:21:50;28.40;90.80
47921;DHT22;33686;48.770;9.186;2022-07-21T13:26:45;27.90;91.50
47921;DHT22;33686;48.770;9.186;2022-07-21T13:29:11;27.40;91.80
47921;DHT22;33686;48.770;9.186;2022-07-21T13:31:36;27.50;92.10
47921;DHT22;33686;48.770;9.186;2022-07-21T13:34:03;28.20;91.50
47921;DHT22;33686;48.770;9.186;2022-07-21T13:36:28;28.60;91.40
47921;DHT22;33686;48.770;9.186;2022-07-21T13:38:54;28.50;91.50
47921;DHT22;33686;48.770;9.186;2022-07-21T13:41:21;28.20;91.80
47921;DHT22;33686;48.770;9.186;2022-07-21T13:43:47;28.50;91.70
47921;DHT22;33686;48.770;9.186;2022-07-21T13:46:12;28.20;91.90
47921;DHT22;33686;48.770;9.186;2022-07-21T13:48:38;28.20;91.70
47921;DHT22;33686;48.770;9.186;2022-07-21T13:51:04;28.00;91.90
47921;DHT22;33686;48.770;9.186;2022-07-21T13:53:29;27.80;91.90
47921;DHT22;33686;48.770;9.186;2022-07-21T13:55:55;28.00;92.00
47921;DHT22;33686;48.770;9.186;2022-07-21T13:58:21;28.20;91.60
47921;DHT22;33686;48.770;9.186;2022-07-21T14:00:46;27.80;92.10
47921;DHT22;33686;48.770;9.186;2022-07-21T14:03:12;27.80;91.80
47921;DHT22;33686;48.770;9.186;2022-07-21T14:05:38;28.00;91.40
47921;DHT22;33686;48.770;9.186;2022-07-21T14:08:04;28.20;91.20
47921;DHT22;33686;48.770;9.186;2022-07-21T14:10:29;27.50;91.40
47921;DHT22;33686;48.770;9.186;2022-07-21T14:12:56;27.50;91.50
47921;DHT22;33686;48.770;9.186;2022-07-21T14:15:22;27.70;91.30
47921;DHT22;33686;48.770;9.186;2022-07-21T14:17:47;28.00;91.00
47921;DHT22;33686;48.770;9.186;2022-07-21T14:20:14;28.30;90.80
47921;DHT22;33686;48.770;9.186;2022-07-21T14:22:39;28.00;90.90
47921;DHT22;33686;48.770;9.186;2022-07-21T14:25:05;28.10;90.90
47921;DHT22;33686;48.770;9.186;2022-07-21T14:27:47;28.30;90.60
47921;DHT22;33686;48.770;9.186;2022-07-21T14:30:13;28.40;90.20
47921;DHT22;33686;48.770;9.186;2022-07-21T14:32:39;28.30;90.40
47921;DHT22;33686;48.770;9.186;2022-07-21T14:35:04;28.00;90.30
47921;DHT22;33686;48.770;9.186;2022-07-21T14:37:30;27.80;90.70
47921;DHT22;33686;48.770;9.186;2022-07-21T14:39:56;27.60;90.60
47921;DHT22;33686;48.770;9.186;2022-07-21T14:42:21;28.00;90.30
47921;DHT22;33686;48.770;9.186;2022-07-21T14:44:50;27.90;90.30
47921;DHT22;33686;48.770;9.186;2022-07-21T14:47:16;28.10;90.10
47921;DHT22;33686;48.770;9.186;2022-07-21T14:49:41;28.20;89.80
47921;DHT22;33686;48.770;9.186;2022-07-21T14:52:07;27.90;89.70
47921;DHT22;33686;48.770;9.186;2022-07-21T14:54:34;27.90;90.10
47921;DHT22;33686;48.770;9.186;2022-07-21T14:57:00;27.70;89.90
47921;DHT22;33686;48.770;9.186;2022-07-21T14:59:26;27.60;90.20
47921;DHT22;33686;48.770;9.186;2022-07-21T15:01:51;28.20;90.00
47921;DHT22;33686;48.770;9.186;2022-07-21T15:04:17;28.20;89.70
47921;DHT22;33686;48.770;9.186;2022-07-21T15:06:44;28.30;89.70
47921;DHT22;33686;48.770;9.186;2022-07-21T15:09:11;28.70;89.30
47921;DHT22;33686;48.770;9.186;2022-07-21T15:11:37;28.90;88.20
47921;DHT22;33686;48.770;9.186;2022-07-21T15:14:02;28.80;89.10
47921;DHT22;33686;48.770;9.186;2022-07-21T15:16:28;28.70;89.00
47921;DHT22;33686;48.770;9.186;2022-07-21T15:18:53;28.40;89.50
47921;DHT22;33686;48.770;9.186;2022-07-21T15:21:19;28.60;89.70
47921;DHT22;33686;48.770;9.186;2022-07-21T15:23:44;28.50;89.50
47921;DHT22;33686;48.770;9.186;2022-07-21T15:26:10;28.40;90.00
47921;DHT22;33686;48.770;9.186;2022-07-21T15:28:36;28.50;90.00
47921;DHT22;33686;48.770;9.186;2022-07-21T15:31:01;28.60;89.40
47921;DHT22;33686;48.770;9.186;2022-07-21T15:33:27;29.10;88.50
47921;DHT22;33686;48.770;9.186;2022-07-21T15:35:52;29.40;87.70
47921;DHT22;33686;48.770;9.186;2022-07-21T15:38:20;29.10;87.80
47921;DHT22;33686;48.770;9.186;2022-07-21T15:40:45;28.70;88.30
47921;DHT22;33686;48.770;9.186;2022-07-21T15:43:11;28.20;89.30
47921;DHT22;33686;48.770;9.186;2022-07-21T15:45:36;28.00;90.10
47921;DHT22;33686;48.770;9.186;2022-07-21T15:48:02;27.80;90.20
47921;DHT22;33686;48.770;9.186;2022-07-21T15:50:27;27.80;90.20
47921;DHT22;33686;48.770;9.186;2022-07-21T15:52:53;27.60;90.20
47921;DHT22;33686;48.770;9.186;2022-07-21T15:55:19;27.50;90.20
47921;DHT22;33686;48.770;9.186;2022-07-21T15:57:45;27.50;90.30
47921;DHT22;33686;48.770;9.186;2022-07-21T16:00:11;27.60;90.40
47921;DHT22;33686;48.770;9.186;2022-07-21T16:02:38;27.60;90.50
47921;DHT22;33686;48.770;9.186;2022-07-21T16:05:06;27.40;90.40
47921;DHT22;33686;48.770;9.186;2022-07-21T16:07:32;27.50;90.30
47921;DHT22;33686;48.770;9.186;2022-07-21T16:09:57;27.90;90.20
47921;DHT22;33686;48.770;9.186;2022-07-21T16:12:23;28.10;90.10
47921;DHT22;33686;48.770;9.186;2022-07-21T16:14:48;28.10;89.90
47921;DHT22;33686;48.770;9.186;2022-07-21T16:17:14;28.20;89.40
47921;DHT22;33686;48.770;9.186;2022-07-21T16:19:39;27.90;89.80
47921;DHT22;33686;48.770;9.186;2022-07-21T16:22:05;27.80;90.00
47921;DHT22;33686;48.770;9.186;2022-07-21T16:24:31;27.80;90.20
47921;DHT22;33686;48.770;9.186;2022-07-21T16:26:57;28.10;90.10
47921;DHT22;33686;48.770;9.186;2022-07-21T16:29:22;28.40;89.50
47921;DHT22;33686;48.770;9.186;2022-07-21T16:31:48;28.50;89.10
47921;DHT22;33686;48.770;9.186;2022-07-21T16:34:14;28.50;88.90
47921;DHT22;33686;48.770;9.186;2022-07-21T16:36:39;28.70;88.60
47921;DHT22;33686;48.770;9.186;2022-07-21T16:39:05;28.60;88.90
47921;DHT22;33686;48.770;9.186;2022-07-21T16:41:30;28.30;88.90
47921;DHT22;33686;48.770;9.186;2022-07-21T16:43:56;28.10;89.50
47921;DHT22;33686;48.770;9.186;2022-07-21T16:46:21;28.00;89.30
47921;DHT22;33686;48.770;9.186;2022-07-21T16:48:48;27.90;89.50
47921;DHT22;33686;48.770;9.186;2022-07-21T16:51:16;27.90;89.70
47921;DHT22;33686;48.770;9.186;2022-07-21T16:53:45;28.00;89.80
47921;DHT22;33686;48.770;9.186;2022-07-21T16:56:11;28.10;89.80
47921;DHT22;33686;48.770;9.186;2022-07-21T16:58:37;28.10;89.30
47921;DHT22;33686;48.770;9.186;2022-07-21T17:01:03;28.30;88.80
47921;DHT22;33686;48.770;9.186;2022-07-21T17:03:28;28.30;88.50
47921;DHT22;33686;48.770;9.186;2022-07-21T17:05:54;28.10;89.10
47921;DHT22;33686;48.770;9.186;2022-07-21T17:08:20;28.40;88.60
47921;DHT22;33686;48.770;9.186;2022-07-21T17:10:45;28.30;88.40
47921;DHT22;33686;48.770;9.186;2022-07-21T17:13:11;28.30;88.20
47921;DHT22;33686;48.770;9.186;2022-07-21T17:15:36;28.40;88.20
47921;DHT22;33686;48.770;9.186;2022-07-21T17:18:02;28.50;87.90
47921;DHT22;33686;48.770;9.186;2022-07-21T17:20:28;28.50;87.80
47921;DHT22;33686;48.770;9.186;2022-07-21T17:22:54;28.40;88.10
47921;DHT22;33686;48.770;9.186;2022-07-21T17:25:19;28.50;88.10
47921;DHT22;33686;48.770;9.186;2022-07-21T17:27:45;28.40;87.30
47921;DHT22;33686;48.770;9.186;2022-07-21T17:30:10;28.40;87.70
47921;DHT22;33686;48.770;9.186;2022-07-21T17:32:36;28.30;88.00
47921;DHT22;33686;48.770;9.186;2022-07-21T17:35:02;28.20;87.70
47921;DHT22;33686;48.770;9.186;2022-07-21T17:37:28;28.20;87.90
47921;DHT22;33686;48.770;9.186;2022-07-21T17:39:53;28.10;88.00
47921;DHT22;33686;48.770;9.186;2022-07-21T17:42:19;27.80;88.60
47921;DHT22;33686;48.770;9.186;2022-07-21T17:44:45;27.90;88.40
47921;DHT22;33686;48.770;9.186;2022-07-21T17:47:11;27.80;88.80
47921;DHT22;33686;48.770;9.186;2022-07-21T17:49:36;27.90;88.90
47921;DHT22;33686;48.770;9.186;2022-07-21T17:52:02;27.70;89.20
47921;DHT22;33686;48.770;9.186;2022-07-21T17:54:27;27.60;89.20
47921;DHT22;33686;48.770;9.186;2022-07-21T17:56:53;27.40;89.50
47921;DHT22;33686;48.770;9.186;2022-07-21T17:59:37;27.30;89.80
47921;DHT22;33686;48.770;9.186;2022-07-21T18:02:03;27.20;89.60
47921;DHT22;33686;48.770;9.186;2022-07-21T18:04:29;27.20;90.00
47921;DHT22;33686;48.770;9.186;2022-07-21T18:06:55;27.20;90.00
47921;DHT22;33686;48.770;9.186;2022-07-21T18:09:20;27.20;90.20
47921;DHT22;33686;48.770;9.186;2022-07-21T18:11:46;27.20;90.20
47921;DHT22;33686;48.770;9.186;2022-07-21T18:14:12;27.20;90.20
47921;DHT22;33686;48.770;9.186;2022-07-21T18:16:37;27.00;90.40
47921;DHT22;33686;48.770;9.186;2022-07-21T18:19:03;26.90;90.50
47921;DHT22;33686;48.770;9.186;2022-07-21T18:21:28;26.90;90.70
47921;DHT22;33686;48.770;9.186;2022-07-21T18:23:54;26.90;90.80
47921;DHT22;33686;48.770;9.186;2022-07-21T18:26:19;26.90;90.80
47921;DHT22;33686;48.770;9.186;2022-07-21T18:28:45;26.90;90.90
47921;DHT22;33686;48.770;9.186;2022-07-21T18:31:11;26.90;90.90
47921;DHT22;33686;48.770;9.186;2022-07-21T18:33:37;26.80;90.80
47921;DHT22;33686;48.770;9.186;2022-07-21T18:36:03;26.60;91.00
47921;DHT22;33686;48.770;9.186;2022-07-21T18:38:29;26.70;91.00
47921;DHT22;33686;48.770;9.186;2022-07-21T18:40:54;26.60;91.60
47921;DHT22;33686;48.770;9.186;2022-07-21T18:43:20;26.50;91.20
47921;DHT22;33686;48.770;9.186;2022-07-21T18:45:46;26.60;91.70
47921;DHT22;33686;48.770;9.186;2022-07-21T18:48:11;26.50;91.40
47921;DHT22;33686;48.770;9.186;2022-07-21T18:50:37;26.40;91.50
47921;DHT22;33686;48.770;9.186;2022-07-21T18:53:02;26.50;91.80
47921;DHT22;33686;48.770;9.186;2022-07-21T18:55:28;26.40;91.70
47921;DHT22;33686;48.770;9.186;2022-07-21T18:57:54;26.30;91.70
47921;DHT22;33686;48.770;9.186;2022-07-21T19:00:19;26.20;91.80
47921;DHT22;33686;48.770;9.186;2022-07-21T19:02:45;26.20;91.90
47921;DHT22;33686;48.770;9.186;2022-07-21T19:05:11;26.20;92.00
47921;DHT22;33686;48.770;9.186;2022-07-21T19:07:37;26.00;92.00
47921;DHT22;33686;48.770;9.186;2022-07-21T19:10:03;25.90;92.20
47921;DHT22;33686;48.770;9.186;2022-07-21T19:12:28;25.80;92.40
47921;DHT22;33686;48.770;9.186;2022-07-21T19:14:54;25.80;92.60
47921;DHT22;33686;48.770;9.186;2022-07-21T19:17:20;25.70;92.80
47921;DHT22;33686;48.770;9.186;2022-07-21T19:19:45;25.60;93.30
47921;DHT22;33686;48.770;9.186;2022-07-21T19:22:11;25.60;93.10
47921;DHT22;33686;48.770;9.186;2022-07-21T19:27:14;25.50;93.40
47921;DHT22;33686;48.770;9.186;2022-07-21T19:29:39;25.40;93.70
47921;DHT22;33686;48.770;9.186;2022-07-21T19:32:05;25.30;93.90
47921;DHT22;33686;48.770;9.186;2022-07-21T19:34:31;25.20;94.00
47921;DHT22;33686;48.770;9.186;2022-07-21T19:36:56;25.10;94.30
47921;DHT22;33686;48.770;9.186;2022-07-21T19:39:22;25.10;94.30
47921;DHT22;33686;48.770;9.186;2022-07-21T19:41:48;25.00;94.50
47921;DHT22;33686;48.770;9.186;2022-07-21T19:44:14;24.80;95.00
47921;DHT22;33686;48.770;9.186;2022-07-21T19:46:40;24.70;96.00
47921;DHT22;33686;48.770;9.186;2022-07-21T19:49:05;24.40;96.60
47921;DHT22;33686;48.770;9.186;2022-07-21T19:51:31;24.30;97.10
47921;DHT22;33686;48.770;9.186;2022-07-21T19:53:56;24.00;97.40
47921;DHT22;33686;48.770;9.186;2022-07-21T19:56:22;23.90;97.90
47921;DHT22;33686;48.770;9.186;2022-07-21T19:58:48;23.70;98.20
47921;DHT22;33686;48.770;9.186;2022-07-21T20:01:13;23.40;99.00
47921;DHT22;33686;48.770;9.186;2022-07-21T20:03:39;23.40;99.40
47921;DHT22;33686;48.770;9.186;2022-07-21T20:06:04;23.30;99.90
47921;DHT22;33686;48.770;9.186;2022-07-21T20:08:30;23.00;99.90
47921;DHT22;33686;48.770;9.186;2022-07-21T20:10:56;22.90;99.90
47921;DHT22;33686;48.770;9.186;2022-07-21T20:13:21;22.70;99.90
47921;DHT22;33686;48.770;9.186;2022-07-21T20:15:48;22.70;99.90
47921;DHT22;33686;48.770;9.186;2022-07-21T20:18:13;22.60;99.90